Freeman, Iowa
Current Conditions -  °F | °C
As of 9:53 AM on Thursday 29 Jan 2015 (Local Time) from KMCW Reporting Station
Overcast Overcast  
Wind Chill: 13°   Ceiling: 1300
Heat Index: 29°   Visibility: 10mi
Dew Point: 24°   Wind: 32mph
Humidity: 82%   Direction: 330°NNW
Pressure: 30.18"   Gusts: 43mph
Location:  43.1451°N, 93.1385°W
Report Text: KMCW 291553Z AUTO 33028G37KT 10SM OVC013 M02/M04 A3018 RMK AO2 PK WND 32037/1550 SLP228 T10171044 $
Loading
Personal Weather Stations






























Interactive Weather Map New forecast layout! Learn more

10-Day Weather Forecast

Advertisements
Track Severe Weather on mobile